Time;durP1;ratioP1;P1;durP2;ratioP2;P2;SDS_P1;SDS_P2;PMS_P1;PMS_P2;Temp;Humidity;BMP_temperature;BMP_pressure;BME280_temperature;BME280_humidity;BME280_pressure;Samples;Min_cycle;Max_cycle;Signal;HPM_P1;HPM_P2
2024/04/07 00:00:56;;;;;;;6.72;3.92;;;;;;;12.83;71.56;99939.06;2510778;28;20039;-79
2024/04/07 00:02:10;;;;;;;6.28;4.68;;;;;;;12.83;71.27;99937.31;2503033;28;20023;-81
2024/04/07 00:03:23;;;;;;;7.72;3.90;;;;;;;12.84;71.28;99938.16;2495183;28;20054;-79
2024/04/07 00:04:36;;;;;;;6.95;4.63;;;;;;;12.84;71.21;99932.94;2509708;28;20014;-78
2024/04/07 00:05:55;;;;;;;5.78;3.95;;;;;;;12.83;71.18;99946.91;2511509;28;20097;-79
2024/04/07 00:07:08;;;;;;;6.57;3.45;;;;;;;12.83;71.23;99941.66;2512439;28;20575;-78
2024/04/07 00:08:23;;;;;;;6.13;4.63;;;;;;;12.83;71.43;99944.28;2515325;28;20037;-79
2024/04/07 00:09:38;;;;;;;6.40;5.00;;;;;;;12.82;71.28;99937.34;2523960;28;20030;-79
2024/04/07 00:10:51;;;;;;;10.32;4.10;;;;;;;12.83;71.30;99933.81;2523127;28;20090;-79
2024/04/07 00:12:05;;;;;;;5.95;4.28;;;;;;;12.85;71.42;99939.88;2510921;28;20038;-79
2024/04/07 00:13:18;;;;;;;6.68;4.68;;;;;;;12.87;71.28;99944.16;2515704;28;20093;-79
2024/04/07 00:14:40;;;;;;;5.80;4.22;;;;;;;12.89;71.30;99965.09;2522284;28;20152;-79
2024/04/07 00:15:53;;;;;;;14.33;5.07;;;;;;;12.89;71.19;99946.75;2509971;28;20102;-80
2024/04/07 00:17:06;;;;;;;7.20;5.38;;;;;;;12.92;71.09;99945.81;2516333;28;20897;-80
2024/04/07 00:18:20;;;;;;;7.43;4.65;;;;;;;12.92;70.97;99951.88;2521842;28;20105;-79
2024/04/07 00:19:33;;;;;;;8.60;4.93;;;;;;;12.94;70.74;99954.47;2502737;28;20495;-79
2024/04/07 00:20:47;;;;;;;7.13;4.20;;;;;;;12.94;70.65;99957.09;2499620;28;20102;-78
2024/04/07 00:22:00;;;;;;;7.85;5.05;;;;;;;12.95;70.55;99964.03;2505127;28;20481;-79
2024/04/07 00:23:13;;;;;;;8.10;6.22;;;;;;;12.95;70.60;99964.88;2505681;28;20029;-80
2024/04/07 00:24:26;;;;;;;7.30;6.57;;;;;;;12.97;70.40;99965.72;2502717;28;20058;-80
2024/04/07 00:25:40;;;;;;;5.78;4.53;;;;;;;13.01;70.16;99963.84;2506218;28;20038;-79
2024/04/07 00:26:53;;;;;;;4.95;4.45;;;;;;;13.05;69.89;99962.88;2503888;28;20026;-79
2024/04/07 00:28:06;;;;;;;6.63;4.03;;;;;;;13.07;69.38;99968.94;2505559;28;20054;-79
2024/04/07 00:29:19;;;;;;;9.75;4.82;;;;;;;13.08;69.15;99961.00;2512638;28;20711;-79
2024/04/07 00:30:33;;;;;;;5.97;3.75;;;;;;;13.10;69.01;99977.53;2506627;28;20030;-79
2024/04/07 00:31:46;;;;;;;6.20;4.57;;;;;;;13.12;68.89;99979.28;2511541;28;20066;-79
2024/04/07 00:33:00;;;;;;;5.25;4.40;;;;;;;13.12;68.92;99972.25;2505436;28;20105;-79
2024/04/07 00:34:13;;;;;;;11.75;5.45;;;;;;;13.12;68.91;99974.03;2516275;28;20640;-79
2024/04/07 00:35:27;;;;;;;5.38;4.60;;;;;;;13.12;68.89;99960.94;2512420;28;20030;-79
2024/04/07 00:36:40;;;;;;;8.15;4.78;;;;;;;13.10;68.51;99972.28;2505112;28;20065;-79
2024/04/07 00:37:53;;;;;;;7.72;4.70;;;;;;;13.09;68.60;99969.75;2512612;28;20018;-79
2024/04/07 00:39:08;;;;;;;9.32;5.15;;;;;;;13.08;68.62;99966.25;2505981;28;21419;-79
2024/04/07 00:40:21;;;;;;;5.15;3.90;;;;;;;13.08;68.43;99963.63;2515607;28;20092;-79
2024/04/07 00:41:34;;;;;;;6.32;4.07;;;;;;;13.09;68.86;99967.13;2510887;28;20483;-78
2024/04/07 00:42:47;;;;;;;10.25;4.65;;;;;;;13.08;68.83;99968.00;2515512;28;20030;-79
2024/04/07 00:44:01;;;;;;;13.05;3.80;;;;;;;13.07;68.26;99966.31;2511824;28;20042;-79
2024/04/07 00:45:14;;;;;;;9.50;6.47;;;;;;;13.04;68.35;99972.50;2505936;28;20018;-79
2024/04/07 00:46:27;;;;;;;7.78;5.25;;;;;;;13.03;68.33;99964.66;2504199;28;20029;-80
2024/04/07 00:47:41;;;;;;;5.00;4.15;;;;;;;13.02;68.58;99978.69;2504259;28;20515;-79
2024/04/07 00:48:55;;;;;;;6.30;3.80;;;;;;;12.97;68.98;99981.44;2506651;28;20025;-79
2024/04/07 00:50:08;;;;;;;5.25;4.55;;;;;;;12.88;68.81;99992.16;2505470;28;20026;-79
2024/04/07 00:51:22;;;;;;;8.65;4.93;;;;;;;12.80;69.28;99986.28;2506368;28;20041;-79
2024/04/07 00:52:36;;;;;;;7.88;5.35;;;;;;;12.77;69.25;99981.13;2504027;28;20022;-80
2024/04/07 00:53:49;;;;;;;7.13;3.85;;;;;;;12.75;69.21;99978.56;2505017;28;20042;-81
2024/04/07 00:55:03;;;;;;;8.82;4.43;;;;;;;12.72;69.38;99993.50;2508746;28;20029;-79
2024/04/07 00:56:17;;;;;;;8.80;4.55;;;;;;;12.64;69.61;99994.56;2506066;28;20503;-79
2024/04/07 00:57:30;;;;;;;8.15;4.22;;;;;;;12.59;69.93;99993.84;2505474;28;20033;-79
2024/04/07 00:58:44;;;;;;;11.18;4.82;;;;;;;12.58;70.08;100006.97;2506420;28;20026;-80
2024/04/07 00:59:57;;;;;;;11.63;5.93;;;;;;;12.57;70.25;100008.75;2503959;28;20026;-80
2024/04/07 01:01:10;;;;;;;12.15;4.75;;;;;;;12.54;70.27;100007.94;2506906;28;23324;-79
2024/04/07 01:02:24;;;;;;;11.75;5.07;;;;;;;12.48;70.35;100008.13;2502340;28;20031;-80
2024/04/07 01:03:37;;;;;;;7.57;4.68;;;;;;;12.44;70.30;100010.81;2504510;28;20102;-79
2024/04/07 01:04:50;;;;;;;4.70;3.80;;;;;;;12.42;70.34;100003.91;2504454;28;20050;-80
2024/04/07 01:06:03;;;;;;;14.23;3.78;;;;;;;12.42;70.47;99996.91;2505139;28;20118;-79
2024/04/07 01:07:17;;;;;;;6.50;4.30;;;;;;;12.38;70.17;100002.28;2514925;28;20030;-80
2024/04/07 01:08:30;;;;;;;5.10;3.60;;;;;;;12.34;70.78;100001.50;2520051;28;20583;-79
2024/04/07 01:09:44;;;;;;;4.28;3.67;;;;;;;12.28;70.68;100000.78;2510950;28;20022;-80
2024/04/07 01:10:57;;;;;;;6.43;4.40;;;;;;;12.25;71.07;100001.72;2514245;28;22740;-80
2024/04/07 01:12:27;;;;;;;6.13;3.58;;;;;;;12.21;71.33;100003.56;2510249;28;20045;-80
2024/04/07 01:13:40;;;;;;;11.98;5.35;;;;;;;12.14;71.53;100003.78;2514906;28;20018;-80
2024/04/07 01:14:53;;;;;;;6.70;5.57;;;;;;;12.10;71.68;100000.34;2522177;28;20022;-79
2024/04/07 01:16:06;;;;;;;5.07;3.90;;;;;;;12.08;71.78;100007.41;2508936;28;20065;-78
2024/04/07 01:17:20;;;;;;;12.20;4.70;;;;;;;12.06;71.90;100009.19;2515167;28;20044;-80
2024/04/07 01:18:33;;;;;;;4.97;4.40;;;;;;;12.05;71.93;100010.06;2510795;28;20077;-80
2024/04/07 01:19:46;;;;;;;9.60;4.68;;;;;;;12.03;71.90;100016.25;2504392;28;20090;-80
2024/04/07 01:21:00;;;;;;;5.80;4.13;;;;;;;11.98;72.09;100012.00;2515428;28;20061;-79
2024/04/07 01:22:13;;;;;;;6.32;5.28;;;;;;;11.96;72.12;100015.56;2520959;28;20022;-79
2024/04/07 01:23:26;;;;;;;5.00;4.13;;;;;;;11.92;72.18;100008.66;2509194;28;20507;-78
2024/04/07 01:24:39;;;;;;;5.65;3.92;;;;;;;11.90;72.18;100013.06;2506534;28;20487;-79
2024/04/07 01:25:52;;;;;;;9.13;4.68;;;;;;;11.90;72.03;100016.56;2495667;28;20055;-79
2024/04/07 01:27:06;;;;;;;7.32;5.60;;;;;;;11.87;72.11;100016.59;2507701;28;20010;-79
2024/04/07 01:28:19;;;;;;;5.88;4.80;;;;;;;11.87;72.20;100018.38;2521054;28;20034;-79
2024/04/07 01:29:32;;;;;;;8.35;4.82;;;;;;;11.86;72.27;100019.25;2521424;28;20049;-79
2024/04/07 01:30:45;;;;;;;7.15;4.65;;;;;;;11.87;72.35;100024.44;2512626;28;20026;-79
2024/04/07 01:31:59;;;;;;;8.98;4.50;;;;;;;11.87;72.36;100026.22;2533113;22;20048;-76
2024/04/07 01:33:12;;;;;;;10.77;4.13;;;;;;;11.86;72.56;100032.31;2520488;28;20038;-74
2024/04/07 01:34:25;;;;;;;4.50;3.72;;;;;;;11.87;72.61;100028.84;2522737;28;20064;-74
2024/04/07 01:35:38;;;;;;;5.15;4.43;;;;;;;11.87;72.46;100031.44;2511774;28;20049;-74
2024/04/07 01:36:51;;;;;;;5.00;4.43;;;;;;;11.89;72.67;100034.88;2514997;28;20326;-74
2024/04/07 01:38:05;;;;;;;7.35;3.97;;;;;;;11.92;72.76;100034.81;2522809;28;20033;-75
2024/04/07 01:39:18;;;;;;;6.53;4.13;;;;;;;11.92;72.84;100037.44;2512096;28;20077;-73
2024/04/07 01:40:31;;;;;;;14.02;5.05;;;;;;;11.94;72.67;100039.09;2511708;28;20035;-74
2024/04/07 01:41:45;;;;;;;7.45;4.75;;;;;;;11.97;72.69;100044.25;2502232;28;20021;-75
2024/04/07 01:42:58;;;;;;;6.93;4.57;;;;;;;11.99;72.85;100041.63;2509217;28;20022;-75
2024/04/07 01:44:12;;;;;;;10.65;5.35;;;;;;;12.01;72.83;100042.44;2522269;28;20487;-75
2024/04/07 01:45:25;;;;;;;6.47;5.55;;;;;;;12.01;72.97;100047.69;2522638;28;20482;-76
2024/04/07 01:46:38;;;;;;;8.88;4.10;;;;;;;12.02;73.09;100041.53;2511295;28;20027;-75
2024/04/07 01:47:51;;;;;;;7.25;3.95;;;;;;;12.01;73.07;100045.06;2515537;28;20026;-75
2024/04/07 01:49:05;;;;;;;10.25;3.67;;;;;;;12.02;72.70;100041.53;2510716;28;20022;-74
2024/04/07 01:50:18;;;;;;;6.97;4.72;;;;;;;12.01;72.99;100042.44;2509828;28;20478;-74
2024/04/07 01:51:31;;;;;;;6.82;3.58;;;;;;;12.01;73.13;100039.84;2511670;28;20459;-74
2024/04/07 01:52:44;;;;;;;5.18;3.90;;;;;;;12.00;73.10;100044.22;2516008;28;20649;-74
2024/04/07 01:53:58;;;;;;;6.13;4.43;;;;;;;11.98;73.45;100048.63;2512045;28;20569;-74
2024/04/07 01:55:11;;;;;;;5.40;3.95;;;;;;;11.96;73.18;100062.63;2505950;28;20033;-74
2024/04/07 01:56:24;;;;;;;7.50;3.85;;;;;;;11.92;73.23;100068.81;2510490;28;20114;-74
2024/04/07 01:57:37;;;;;;;7.18;3.75;;;;;;;11.88;73.31;100067.19;2508616;28;20430;-75
2024/04/07 01:58:50;;;;;;;8.23;4.70;;;;;;;11.86;73.35;100071.53;2515750;28;20072;-74
2024/04/07 02:00:07;;;;;;;7.13;4.63;;;;;;;11.84;73.17;100062.88;2522306;28;20503;-74
2024/04/07 02:01:20;;;;;;;7.47;4.30;;;;;;;11.83;73.08;100067.25;2522826;28;20025;-74
2024/04/07 02:02:34;;;;;;;9.85;4.30;;;;;;;11.83;73.17;100067.25;2522715;28;20176;-74
2024/04/07 02:03:48;;;;;;;4.38;3.72;;;;;;;11.83;73.22;100061.16;2511860;28;20030;-74
2024/04/07 02:05:01;;;;;;;8.50;4.45;;;;;;;11.83;73.43;100061.16;2500545;28;20114;-74
2024/04/07 02:06:14;;;;;;;5.88;5.15;;;;;;;11.79;73.45;100055.97;2498434;28;20030;-74
2024/04/07 02:07:28;;;;;;;9.40;4.45;;;;;;;11.74;73.17;100057.84;2515115;28;20037;-74
2024/04/07 02:08:41;;;;;;;7.63;4.20;;;;;;;11.71;73.36;100057.06;2512084;28;20110;-74
2024/04/07 02:09:54;;;;;;;8.90;4.38;;;;;;;11.67;73.30;100061.50;2505778;28;20109;-74
2024/04/07 02:11:07;;;;;;;5.10;3.25;;;;;;;11.65;73.48;100062.44;2505763;28;20042;-74
2024/04/07 02:12:20;;;;;;;6.38;5.20;;;;;;;11.63;73.69;100061.59;2515417;28;20112;-75
2024/04/07 02:13:34;;;;;;;5.90;4.15;;;;;;;11.61;73.38;100058.16;2522593;28;20029;-74
2024/04/07 02:14:48;;;;;;;8.40;4.80;;;;;;;11.55;73.82;100062.63;2522752;28;20081;-74
2024/04/07 02:16:01;;;;;;;6.45;3.97;;;;;;;11.53;74.01;100074.88;2522198;28;20477;-73
2024/04/07 02:17:15;;;;;;;6.97;4.90;;;;;;;11.50;74.15;100068.84;2511546;28;20038;-74
2024/04/07 02:18:28;;;;;;;5.07;3.90;;;;;;;11.46;74.22;100067.19;2515412;28;20525;-74
2024/04/07 02:19:41;;;;;;;7.63;4.10;;;;;;;11.41;74.32;100069.91;2522323;28;20137;-74
2024/04/07 02:20:55;;;;;;;6.85;4.10;;;;;;;11.39;74.49;100066.47;2503887;28;20031;-74
2024/04/07 02:22:08;;;;;;;6.70;3.80;;;;;;;11.35;74.67;100070.88;2515714;28;20034;-75
2024/04/07 02:23:21;;;;;;;14.68;4.95;;;;;;;11.32;74.54;100075.31;2522142;28;20459;-74
2024/04/07 02:24:34;;;;;;;5.22;4.20;;;;;;;11.27;74.63;100080.66;2522082;28;20024;-74
2024/04/07 02:25:48;;;;;;;4.75;4.25;;;;;;;11.24;74.80;100082.47;2512015;28;20022;-74
2024/04/07 02:27:01;;;;;;;6.32;3.75;;;;;;;11.20;74.77;100081.66;2505367;28;20026;-74
2024/04/07 02:28:16;;;;;;;8.10;3.97;;;;;;;11.20;74.96;100086.88;2515222;28;20398;-74
2024/04/07 02:29:29;;;;;;;6.82;4.47;;;;;;;11.18;75.09;100083.47;2522540;28;20502;-73
2024/04/07 02:30:42;;;;;;;5.22;3.95;;;;;;;11.16;75.16;100081.78;2522701;28;20101;-75
2024/04/07 02:31:55;;;;;;;7.05;4.72;;;;;;;11.12;75.07;100086.19;2511141;28;20035;-74
2024/04/07 02:33:09;;;;;;;5.78;5.18;;;;;;;11.07;75.05;100075.81;2515481;28;20038;-75
2024/04/07 02:34:22;;;;;;;5.35;4.35;;;;;;;11.03;74.96;100071.56;2512094;28;20046;-74
2024/04/07 02:35:36;;;;;;;8.25;4.28;;;;;;;11.01;75.37;100083.78;2515020;28;20041;-74
2024/04/07 02:36:49;;;;;;;8.10;4.60;;;;;;;10.99;75.40;100082.94;2522316;28;20041;-74
2024/04/07 02:38:02;;;;;;;7.20;4.15;;;;;;;10.98;75.36;100088.22;2522421;28;20034;-74
2024/04/07 02:39:17;;;;;;;8.23;4.30;;;;;;;10.96;75.38;100092.59;2511927;28;20109;-75
2024/04/07 02:40:31;;;;;;;8.88;4.75;;;;;;;10.91;75.63;100087.47;2515501;28;20061;-74
2024/04/07 02:41:45;;;;;;;5.20;4.30;;;;;;;10.91;75.67;100090.91;2522248;28;20029;-75
2024/04/07 02:42:58;;;;;;;5.15;4.03;;;;;;;10.90;75.73;100086.59;2501728;28;20027;-74
2024/04/07 02:44:11;;;;;;;6.18;5.13;;;;;;;10.88;75.68;100088.38;2508724;28;20134;-74
2024/04/07 02:48:28;;;;;;;6.53;4.63;;;;;;;10.87;75.96;100097.09;2515646;28;20046;-74
2024/04/07 02:49:41;;;;;;;7.35;5.72;;;;;;;10.88;75.93;100096.19;2508368;28;20065;-74
2024/04/07 02:50:57;;;;;;;8.50;5.53;;;;;;;10.88;76.00;100090.13;2505434;28;20019;-75
2024/04/07 02:52:10;;;;;;;11.68;5.45;;;;;;;10.87;76.02;100099.72;2499964;28;20122;-75
2024/04/07 02:53:24;;;;;;;5.95;4.55;;;;;;;10.86;76.23;100097.97;2522429;28;20284;-74
2024/04/07 02:54:37;;;;;;;4.95;3.80;;;;;;;10.88;76.49;100096.19;2511719;28;20057;-74
2024/04/07 02:55:50;;;;;;;8.10;4.18;;;;;;;10.88;76.31;100095.34;2515044;28;20072;-75
2024/04/07 02:57:04;;;;;;;11.75;6.60;;;;;;;10.89;76.28;100094.44;2522017;28;20021;-74
2024/04/07 02:58:18;;;;;;;7.68;5.32;;;;;;;10.89;76.28;100097.94;2522330;28;20030;-74
2024/04/07 02:59:31;;;;;;;6.20;5.47;;;;;;;10.93;76.11;100100.50;2521866;28;20475;-74
2024/04/07 03:00:44;;;;;;;5.60;4.82;;;;;;;10.97;76.02;100100.41;2522341;28;20108;-73
2024/04/07 03:01:57;;;;;;;4.72;3.35;;;;;;;11.00;75.94;100097.75;2521743;28;20018;-74
2024/04/07 03:03:11;;;;;;;8.48;4.15;;;;;;;11.00;75.82;100089.06;2522075;28;20080;-75
2024/04/07 03:04:24;;;;;;;7.60;3.90;;;;;;;11.00;75.67;100105.56;2521862;28;20084;-74
2024/04/07 03:05:38;;;;;;;6.45;4.95;;;;;;;11.00;75.76;100107.31;2522383;28;20029;-74
2024/04/07 03:06:52;;;;;;;11.38;4.85;;;;;;;11.02;75.62;100102.91;2511257;28;20073;-74
2024/04/07 03:08:05;;;;;;;6.70;3.85;;;;;;;11.16;75.25;100107.88;2515001;28;20081;-75
2024/04/07 03:09:19;;;;;;;6.75;3.80;;;;;;;11.32;74.23;100104.06;2522109;28;20479;-74
2024/04/07 03:10:32;;;;;;;5.05;3.10;;;;;;;11.48;73.77;100110.69;2522241;28;20136;-74
2024/04/07 03:11:45;;;;;;;6.90;3.95;;;;;;;11.66;72.47;100112.03;2511232;28;20058;-74
2024/04/07 03:12:58;;;;;;;3.78;3.20;;;;;;;11.82;71.44;100109.09;2515173;28;20036;-74
2024/04/07 03:14:12;;;;;;;6.75;4.13;;;;;;;11.95;70.45;100124.53;2511654;28;20403;-74
2024/04/07 03:15:26;;;;;;;4.68;3.40;;;;;;;11.99;69.89;100120.06;2514840;28;20030;-74
2024/04/07 03:16:39;;;;;;;5.45;4.00;;;;;;;12.06;69.40;100112.97;2521802;28;20053;-74
2024/04/07 03:17:52;;;;;;;5.25;3.35;;;;;;;12.10;69.02;100118.06;2522122;28;20026;-73
2024/04/07 03:19:05;;;;;;;11.70;4.22;;;;;;;12.14;68.96;100124.09;2521994;28;20049;-74
2024/04/07 03:20:19;;;;;;;6.53;4.35;;;;;;;12.16;68.84;100122.31;2521839;28;20064;-74
2024/04/07 03:21:32;;;;;;;6.72;3.45;;;;;;;12.23;68.27;100129.94;2521592;28;20113;-74
2024/04/07 03:22:45;;;;;;;3.60;3.17;;;;;;;12.30;67.55;100129.81;2522106;28;20029;-75
2024/04/07 03:23:58;;;;;;;6.45;5.25;;;;;;;12.30;67.78;100132.44;2521501;28;20030;-73
2024/04/07 03:25:12;;;;;;;5.18;4.68;;;;;;;12.38;67.59;100144.44;2522168;28;20363;-75
2024/04/07 03:26:25;;;;;;;5.85;3.28;;;;;;;12.51;67.02;100139.75;2521945;28;20030;-74
2024/04/07 03:27:38;;;;;;;4.80;3.08;;;;;;;12.59;66.28;100140.41;2521746;28;20152;-75
2024/04/07 03:28:51;;;;;;;6.63;4.25;;;;;;;12.66;66.15;100154.22;2522100;28;20022;-75
2024/04/07 03:30:05;;;;;;;6.68;3.65;;;;;;;12.67;66.40;100153.31;2522127;28;20089;-74
2024/04/07 03:31:19;;;;;;;3.40;2.38;;;;;;;12.66;66.02;100149.84;2521725;28;20362;-74
2024/04/07 03:32:32;;;;;;;7.57;3.40;;;;;;;12.69;65.38;100169.00;2521708;28;20049;-74
2024/04/07 03:33:48;;;;;;;4.88;3.60;;;;;;;12.67;65.40;100166.41;2522151;28;20029;-74
2024/04/07 03:35:01;;;;;;;4.30;3.20;;;;;;;12.66;65.34;100165.56;2522221;28;20033;-74
2024/04/07 03:36:14;;;;;;;6.20;3.45;;;;;;;12.66;65.30;100175.19;2521427;28;20551;-74
2024/04/07 03:37:27;;;;;;;4.28;3.40;;;;;;;12.66;65.21;100178.66;2522037;28;20017;-75
2024/04/07 03:38:41;;;;;;;8.90;4.57;;;;;;;12.64;65.89;100184.81;2521993;28;20032;-74
2024/04/07 03:39:54;;;;;;;4.75;3.30;;;;;;;12.62;65.96;100184.88;2521479;28;20026;-74
2024/04/07 03:41:07;;;;;;;5.93;4.65;;;;;;;12.61;65.73;100188.38;2521742;28;20061;-73
2024/04/07 03:42:20;;;;;;;4.25;3.30;;;;;;;12.62;65.55;100194.47;2522075;28;20022;-75
2024/04/07 03:43:33;;;;;;;8.23;4.55;;;;;;;12.62;65.72;100195.34;2521613;28;20072;-75
2024/04/07 03:44:47;;;;;;;5.93;4.10;;;;;;;12.60;66.08;100197.13;2522019;28;20037;-74
2024/04/07 03:46:03;;;;;;;5.78;3.80;;;;;;;12.62;66.16;100194.47;2521840;28;20040;-74
2024/04/07 03:47:16;;;;;;;7.38;4.10;;;;;;;12.63;65.76;100191.81;2511084;28;20027;-74
2024/04/07 03:48:32;;;;;;;6.10;3.20;;;;;;;12.67;64.82;100197.81;2514691;28;20132;-74
2024/04/07 03:49:46;;;;;;;4.40;3.22;;;;;;;12.78;64.00;100192.34;2511462;28;20079;-76
2024/04/07 03:50:59;;;;;;;4.90;4.30;;;;;;;12.86;63.82;100198.25;2515614;28;20672;-74
2024/04/07 03:52:12;;;;;;;4.78;3.30;;;;;;;12.90;63.12;100201.63;2521470;28;20042;-74
2024/04/07 03:53:27;;;;;;;4.05;2.97;;;;;;;12.95;62.24;100203.25;2511358;28;20033;-74
2024/04/07 03:54:40;;;;;;;8.85;3.75;;;;;;;13.01;62.03;100207.44;2505259;28;20029;-75
2024/04/07 03:55:53;;;;;;;8.88;3.13;;;;;;;13.06;61.81;100190.75;2504484;28;20098;-74
2024/04/07 03:57:07;;;;;;;6.25;3.03;;;;;;;13.08;61.43;100199.41;2514760;28;20028;-74
2024/04/07 03:58:20;;;;;;;5.18;2.83;;;;;;;13.13;61.11;100195.81;2521946;28;20017;-75
2024/04/07 03:59:33;;;;;;;6.40;4.03;;;;;;;13.14;60.75;100181.78;2521143;28;20034;-74
2024/04/07 04:00:46;;;;;;;9.32;4.07;;;;;;;13.16;60.37;100177.38;2512233;28;20541;-74
2024/04/07 04:02:03;;;;;;;6.18;3.05;;;;;;;13.22;59.86;100188.56;2512060;28;20030;-74
2024/04/07 04:03:16;;;;;;;3.83;2.50;;;;;;;13.30;59.28;100177.91;2521920;28;20505;-74
2024/04/07 04:04:31;;;;;;;5.85;2.72;;;;;;;13.39;59.21;100189.91;2521597;28;20037;-74
2024/04/07 04:05:44;;;;;;;7.30;2.83;;;;;;;13.44;59.37;100193.25;2511376;28;20026;-74
2024/04/07 04:06:57;;;;;;;4.90;2.90;;;;;;;13.47;59.07;100199.25;2504792;28;20221;-74
2024/04/07 04:08:11;;;;;;;8.25;2.97;;;;;;;13.52;58.67;100194.75;2514442;28;20061;-74
2024/04/07 04:09:24;;;;;;;8.40;3.17;;;;;;;13.60;58.22;100212.88;2521987;28;20104;-74
2024/04/07 04:10:39;;;;;;;4.38;3.30;;;;;;;13.63;57.99;100204.97;2522072;28;20072;-74
2024/04/07 04:11:52;;;;;;;9.88;4.20;;;;;;;13.65;57.74;100216.22;2521513;28;20427;-74
2024/04/07 04:13:05;;;;;;;6.25;3.17;;;;;;;13.65;57.38;100223.25;2521760;28;20026;-75
2024/04/07 04:14:18;;;;;;;4.72;2.85;;;;;;;13.62;58.02;100232.06;2522164;28;20030;-74
2024/04/07 04:15:34;;;;;;;6.65;2.83;;;;;;;13.58;57.96;100240.94;2521386;28;20487;-74
2024/04/07 04:16:48;;;;;;;6.32;3.63;;;;;;;13.56;58.07;100247.13;2521695;28;20097;-73
2024/04/07 04:18:02;;;;;;;4.32;3.35;;;;;;;13.54;58.49;100244.53;2521415;28;20026;-74
2024/04/07 04:19:15;;;;;;;5.72;2.65;;;;;;;13.51;58.79;100242.00;2521736;28;20022;-73
2024/04/07 04:20:29;;;;;;;4.40;3.28;;;;;;;13.46;59.04;100243.88;2521466;28;20059;-74
2024/04/07 04:21:42;;;;;;;4.88;3.33;;;;;;;13.43;59.84;100251.84;2521898;28;20022;-74
2024/04/07 04:22:55;;;;;;;8.95;4.80;;;;;;;13.38;59.92;100249.31;2521871;28;20049;-74
2024/04/07 04:24:08;;;;;;;5.25;3.67;;;;;;;13.33;60.64;100252.97;2521386;28;20060;-75
2024/04/07 04:25:22;;;;;;;4.35;3.03;;;;;;;13.26;60.68;100254.84;2521984;28;20024;-75
2024/04/07 04:26:35;;;;;;;3.00;2.70;;;;;;;13.20;60.74;100261.13;2521667;28;20029;-74
2024/04/07 04:27:48;;;;;;;5.80;3.28;;;;;;;13.15;60.87;100257.75;2510775;28;20058;-75
2024/04/07 04:29:02;;;;;;;6.38;3.25;;;;;;;13.13;60.15;100261.31;2514942;28;20034;-74
2024/04/07 04:30:15;;;;;;;3.40;2.70;;;;;;;13.10;60.38;100259.63;2521951;28;20601;-74
2024/04/07 04:31:28;;;;;;;3.05;2.65;;;;;;;13.09;60.21;100271.88;2521469;28;20044;-74
2024/04/07 04:32:41;;;;;;;4.10;2.38;;;;;;;13.06;59.87;100265.84;2521573;28;20113;-74
2024/04/07 04:33:56;;;;;;;9.02;3.15;;;;;;;13.05;59.94;100270.22;2521700;28;20022;-74
2024/04/07 04:35:10;;;;;;;7.60;2.65;;;;;;;13.05;59.89;100266.75;2521356;28;20506;-74
2024/04/07 04:36:23;;;;;;;5.90;3.40;;;;;;;13.04;59.85;100276.38;2521137;28;20072;-74
2024/04/07 04:37:36;;;;;;;4.65;2.50;;;;;;;13.05;59.92;100274.59;2521819;28;20097;-74
2024/04/07 04:38:50;;;;;;;4.50;3.33;;;;;;;13.03;59.89;100279.00;2511262;28;20022;-75
2024/04/07 04:40:08;;;;;;;6.20;2.88;;;;;;;12.98;60.47;100276.50;2514542;28;20499;-74
2024/04/07 04:41:21;;;;;;;4.38;3.20;;;;;;;12.92;61.05;100276.66;2508571;28;20023;-75
2024/04/07 04:42:38;;;;;;;3.08;2.63;;;;;;;12.84;61.73;100276.84;2507243;28;20032;-74
2024/04/07 04:43:51;;;;;;;3.97;2.85;;;;;;;12.74;61.96;100277.09;2509363;28;20055;-75
2024/04/07 04:45:06;;;;;;;13.00;3.88;;;;;;;12.65;62.41;100280.81;2506596;28;20524;-74
2024/04/07 04:46:19;;;;;;;8.98;3.10;;;;;;;12.57;62.83;100285.34;2506632;28;20026;-75
2024/04/07 04:47:33;;;;;;;4.25;3.25;;;;;;;12.50;63.37;100276.78;2516080;28;20557;-75
2024/04/07 04:48:46;;;;;;;5.35;3.28;;;;;;;12.43;63.72;100283.88;2523578;28;20529;-74
2024/04/07 04:50:00;;;;;;;3.40;3.10;;;;;;;12.37;63.90;100284.03;2513040;28;20086;-75
2024/04/07 04:51:14;;;;;;;4.38;3.50;;;;;;;12.30;64.43;100294.66;2506109;28;20471;-74
2024/04/07 04:52:30;;;;;;;7.15;4.00;;;;;;;12.23;64.48;100301.78;2516034;28;20030;-74
2024/04/07 04:53:44;;;;;;;6.72;3.47;;;;;;;12.18;64.90;100304.50;2512974;28;20427;-75
2024/04/07 04:54:57;;;;;;;4.95;4.45;;;;;;;12.14;65.28;100302.84;2516751;28;20101;-75
2024/04/07 04:56:10;;;;;;;5.65;4.03;;;;;;;12.08;65.89;100297.75;2522853;28;20046;-74
2024/04/07 04:57:24;;;;;;;12.73;3.25;;;;;;;12.03;66.30;100294.34;2523417;28;20399;-74
2024/04/07 04:58:37;;;;;;;8.05;4.82;;;;;;;11.96;67.03;100292.75;2523386;28;20021;-75
2024/04/07 04:59:53;;;;;;;8.15;3.90;;;;;;;11.89;67.18;100292.00;2522984;28;20605;-74
2024/04/07 05:01:13;;;;;;;8.50;3.63;;;;;;;11.78;67.47;100289.56;2512789;28;20118;-74
2024/04/07 05:02:26;;;;;;;6.20;3.67;;;;;;;11.72;67.93;100299.25;2507198;28;20038;-75
2024/04/07 05:03:39;;;;;;;6.22;3.55;;;;;;;11.68;68.49;100297.63;2516213;28;20034;-75
2024/04/07 05:04:52;;;;;;;8.77;4.00;;;;;;;11.63;68.29;100307.28;2523410;28;20635;-74
2024/04/07 05:06:07;;;;;;;7.00;3.30;;;;;;;11.61;68.55;100314.31;2512611;28;20026;-75
2024/04/07 05:07:20;;;;;;;7.30;4.97;;;;;;;11.59;68.67;100314.34;2515939;28;20548;-74
2024/04/07 05:08:35;;;;;;;6.20;3.67;;;;;;;11.57;68.66;100322.19;2523268;28;20040;-74
2024/04/07 05:09:48;;;;;;;9.23;4.10;;;;;;;11.53;68.85;100320.53;2522983;28;20014;-74
2024/04/07 05:11:06;;;;;;;5.93;3.78;;;;;;;11.48;69.14;100331.94;2523531;28;20026;-74
2024/04/07 05:12:19;;;;;;;8.55;5.00;;;;;;;11.42;69.31;100332.06;2512311;28;20030;-74
2024/04/07 05:13:33;;;;;;;5.93;4.38;;;;;;;11.36;69.32;100325.19;2516317;28;20075;-74
2024/04/07 05:14:46;;;;;;;6.03;3.55;;;;;;;11.33;69.61;100333.94;2502911;28;20057;-74
2024/04/07 05:16:00;;;;;;;9.80;3.78;;;;;;;11.29;69.48;100336.63;2509654;28;20446;-74
2024/04/07 05:17:13;;;;;;;5.32;3.17;;;;;;;11.27;69.83;100339.25;2512479;28;20026;-74
2024/04/07 05:18:26;;;;;;;4.50;2.95;;;;;;;11.29;69.32;100332.25;2516222;28;20079;-75
2024/04/07 05:19:39;;;;;;;7.28;3.55;;;;;;;11.32;69.15;100333.97;2512384;28;20153;-75
2024/04/07 05:20:53;;;;;;;3.63;3.30;;;;;;;11.33;69.05;100327.84;2516357;28;20061;-74
2024/04/07 05:22:08;;;;;;;8.60;5.03;;;;;;;11.35;68.99;100342.59;2512507;28;20085;-74
2024/04/07 05:23:22;;;;;;;3.97;3.33;;;;;;;11.37;69.39;100337.38;2506077;28;20068;-74
2024/04/07 05:24:35;;;;;;;6.32;4.10;;;;;;;11.36;69.21;100330.44;2506350;28;20458;-74
2024/04/07 05:25:48;;;;;;;15.93;4.65;;;;;;;11.35;69.56;100337.38;2516405;28;20538;-75
2024/04/07 05:27:03;;;;;;;7.47;3.67;;;;;;;11.33;69.43;100344.41;2512261;28;20022;-74
2024/04/07 05:28:16;;;;;;;7.38;4.47;;;;;;;11.30;69.62;100347.03;2515517;28;20599;-74
2024/04/07 05:29:30;;;;;;;6.90;3.67;;;;;;;11.28;69.89;100363.63;2512679;28;20117;-76
2024/04/07 05:30:43;;;;;;;5.10;3.83;;;;;;;11.24;70.00;100352.38;2506719;28;20033;-75
2024/04/07 05:31:57;;;;;;;3.92;2.97;;;;;;;11.26;70.38;100365.44;2502282;28;20061;-74
2024/04/07 05:33:10;;;;;;;7.22;3.55;;;;;;;11.27;70.58;100370.59;2515080;28;20088;-75
2024/04/07 05:34:25;;;;;;;3.95;3.15;;;;;;;11.30;70.54;100372.31;2512453;28;20685;-74
2024/04/07 05:35:38;;;;;;;5.35;3.50;;;;;;;11.31;70.49;100377.53;2516198;28;20033;-75
2024/04/07 05:36:52;;;;;;;9.63;3.25;;;;;;;11.35;70.44;100375.72;2512324;28;20022;-74
2024/04/07 05:38:05;;;;;;;6.63;3.00;;;;;;;11.41;70.29;100366.91;2516218;28;20109;-74
2024/04/07 05:39:18;;;;;;;8.68;3.30;;;;;;;11.52;69.72;100362.38;2523154;28;20506;-75
2024/04/07 05:40:31;;;;;;;5.97;2.58;;;;;;;11.62;69.19;100365.72;2522598;28;20038;-75
2024/04/07 05:41:44;;;;;;;5.25;2.95;;;;;;;11.74;68.73;100368.94;2512567;28;20049;-75
2024/04/07 05:42:58;;;;;;;6.50;3.05;;;;;;;11.84;68.37;100369.63;2516274;28;20621;-76
2024/04/07 05:44:11;;;;;;;14.05;5.82;;;;;;;11.97;67.83;100388.63;2522594;28;20070;-74
2024/04/07 05:45:25;;;;;;;5.40;3.28;;;;;;;12.09;67.61;100391.00;2523017;28;20046;-75
2024/04/07 05:46:38;;;;;;;5.10;3.88;;;;;;;12.18;67.42;100390.84;2522384;28;20045;-76